CFG8MA HEGN-EDDH
Flight info
| Callsign | CFG8MA |
|---|---|
| Flight time | N/A |
| Altitude | 38000 |
| Route | BOTIX1B BOTIX V608 NABED T55 TANSA/N0464F340 DCT EVIVI L863 OKANA DCT OKLOP DCT TONDO DCT GITAS DCT NAVTI DCT BODAL DCT ODLIV DCT HDO DCT SOGMA M748 RARUP RARUP3P |
| Aircraft | A321/M-SDE3FGHIRWY/LB1 |
Departure
| Time | N/A |
|---|---|
| Airport | Hurghada International Airport (HEGN) |
Arrival
| Time | 2026-05-03 22:36 |
|---|---|
| Airport | Hamburg Helmut Schmidt Airport (EDDH) |
| Time | Latitude | Longitude | Altitude | Speed | Heading |
|---|---|---|---|---|---|
| 2026-05-03 20:15 | 40.83862 | 23.73886 | 38165 ft | 438 kts | 341° |
| 2026-05-03 20:15 | 40.89570 | 23.71040 | 38168 ft | 438 kts | 341° |
| 2026-05-03 20:16 | 40.95272 | 23.68192 | 38167 ft | 438 kts | 341° |
| 2026-05-03 20:16 | 41.00974 | 23.65345 | 38168 ft | 437 kts | 341° |
| 2026-05-03 20:17 | 41.06589 | 23.62530 | 38168 ft | 437 kts | 341° |
| 2026-05-03 20:17 | 41.12285 | 23.59671 | 38166 ft | 437 kts | 341° |
| 2026-05-03 20:18 | 41.17970 | 23.56814 | 38165 ft | 437 kts | 341° |
| 2026-05-03 20:18 | 41.23669 | 23.53951 | 38171 ft | 437 kts | 341° |
| 2026-05-03 20:19 | 41.29341 | 23.51085 | 38176 ft | 437 kts | 341° |
| 2026-05-03 20:19 | 41.35025 | 23.48215 | 38177 ft | 436 kts | 341° |
| 2026-05-03 20:20 | 41.40649 | 23.45314 | 38179 ft | 436 kts | 336° |
| 2026-05-03 20:20 | 41.46107 | 23.41760 | 38183 ft | 436 kts | 336° |
| 2026-05-03 20:21 | 41.51559 | 23.38207 | 38181 ft | 435 kts | 336° |
| 2026-05-03 20:21 | 41.56999 | 23.34658 | 38180 ft | 435 kts | 336° |
| 2026-05-03 20:22 | 41.62428 | 23.31101 | 38176 ft | 435 kts | 336° |
| 2026-05-03 20:22 | 41.67835 | 23.27561 | 38179 ft | 435 kts | 336° |
| 2026-05-03 20:23 | 41.73269 | 23.23999 | 38177 ft | 435 kts | 336° |
| 2026-05-03 20:23 | 41.78697 | 23.20419 | 38182 ft | 435 kts | 336° |
| 2026-05-03 20:24 | 41.84135 | 23.16828 | 38184 ft | 435 kts | 336° |
| 2026-05-03 20:24 | 41.89575 | 23.13248 | 38188 ft | 435 kts | 337° |
| 2026-05-03 20:25 | 41.94977 | 23.09674 | 38191 ft | 435 kts | 336° |
| 2026-05-03 20:25 | 42.00410 | 23.06067 | 38199 ft | 435 kts | 337° |
| 2026-05-03 20:26 | 42.05833 | 23.02472 | 38207 ft | 434 kts | 337° |
| 2026-05-03 20:26 | 42.11253 | 22.98867 | 38215 ft | 434 kts | 337° |
| 2026-05-03 20:27 | 42.16653 | 22.95260 | 38218 ft | 432 kts | 337° |
| 2026-05-03 20:27 | 42.22017 | 22.91670 | 38222 ft | 431 kts | 337° |
| 2026-05-03 20:28 | 42.27348 | 22.88089 | 38232 ft | 430 kts | 337° |
| 2026-05-03 20:28 | 42.32712 | 22.84495 | 38228 ft | 429 kts | 337° |
| 2026-05-03 20:29 | 42.38020 | 22.80939 | 38228 ft | 428 kts | 337° |
| 2026-05-03 20:29 | 42.43360 | 22.77344 | 38228 ft | 428 kts | 337° |
| 2026-05-03 20:30 | 42.48661 | 22.73763 | 38223 ft | 427 kts | 337° |
| 2026-05-03 20:30 | 42.53996 | 22.70159 | 38228 ft | 427 kts | 337° |
| 2026-05-03 20:31 | 42.59326 | 22.66554 | 38220 ft | 427 kts | 337° |
| 2026-05-03 20:31 | 42.64621 | 22.62959 | 38221 ft | 428 kts | 337° |
| 2026-05-03 20:32 | 42.69949 | 22.59337 | 38223 ft | 428 kts | 337° |
| 2026-05-03 20:32 | 42.75276 | 22.55710 | 38216 ft | 428 kts | 337° |
| 2026-05-03 20:33 | 42.80617 | 22.52061 | 38218 ft | 429 kts | 337° |
| 2026-05-03 20:33 | 42.85863 | 22.48285 | 38217 ft | 431 kts | 332° |
| 2026-05-03 20:34 | 42.90969 | 22.43957 | 38222 ft | 432 kts | 332° |
| 2026-05-03 20:34 | 42.96066 | 22.39619 | 38219 ft | 432 kts | 332° |
| 2026-05-03 20:35 | 43.01135 | 22.35305 | 38220 ft | 432 kts | 332° |
| 2026-05-03 20:35 | 43.06244 | 22.30956 | 38218 ft | 431 kts | 332° |
| 2026-05-03 20:36 | 43.11337 | 22.26613 | 38219 ft | 431 kts | 332° |
| 2026-05-03 20:36 | 43.16424 | 22.22257 | 38225 ft | 431 kts | 331° |
| 2026-05-03 20:37 | 43.21466 | 22.17927 | 38221 ft | 430 kts | 332° |
| 2026-05-03 20:37 | 43.26519 | 22.13587 | 38217 ft | 429 kts | 331° |
| 2026-05-03 20:38 | 43.31581 | 22.09235 | 38212 ft | 429 kts | 331° |
| 2026-05-03 20:38 | 43.36644 | 22.04875 | 38208 ft | 428 kts | 332° |
| 2026-05-03 20:39 | 43.41691 | 22.00517 | 38210 ft | 428 kts | 331° |
| 2026-05-03 20:39 | 43.46697 | 21.96177 | 38203 ft | 428 kts | 331° |
| 2026-05-03 20:40 | 43.51734 | 21.91794 | 38211 ft | 428 kts | 331° |
| 2026-05-03 20:40 | 43.56771 | 21.87415 | 38208 ft | 427 kts | 331° |
| 2026-05-03 20:41 | 43.61802 | 21.83042 | 38204 ft | 427 kts | 331° |
| 2026-05-03 20:41 | 43.66769 | 21.78708 | 38206 ft | 427 kts | 331° |
| 2026-05-03 20:42 | 43.71765 | 21.74331 | 38203 ft | 427 kts | 331° |
| 2026-05-03 20:42 | 43.76788 | 21.69928 | 38205 ft | 427 kts | 331° |
| 2026-05-03 20:43 | 43.81815 | 21.65526 | 38205 ft | 427 kts | 331° |
| 2026-05-03 20:43 | 43.86840 | 21.61107 | 38205 ft | 428 kts | 331° |
| 2026-05-03 20:44 | 43.91859 | 21.56672 | 38200 ft | 428 kts | 331° |
| 2026-05-03 20:44 | 43.96885 | 21.52229 | 38199 ft | 428 kts | 331° |
| 2026-05-03 20:45 | 44.01880 | 21.47808 | 38195 ft | 428 kts | 331° |
| 2026-05-03 20:45 | 44.06902 | 21.43350 | 38200 ft | 428 kts | 331° |
| 2026-05-03 20:46 | 44.11117 | 21.39603 | 38198 ft | 428 kts | 331° |
| 2026-05-03 20:46 | 44.16115 | 21.35151 | 38185 ft | 428 kts | 331° |
| 2026-05-03 20:47 | 44.21028 | 21.30618 | 38193 ft | 430 kts | 328° |
| 2026-05-03 20:47 | 44.25852 | 21.25676 | 38193 ft | 431 kts | 327° |
| 2026-05-03 20:48 | 44.30618 | 21.20675 | 38184 ft | 431 kts | 327° |
| 2026-05-03 20:48 | 44.35440 | 21.15689 | 38182 ft | 431 kts | 327° |
| 2026-05-03 20:49 | 44.40285 | 21.10731 | 38176 ft | 431 kts | 327° |
| 2026-05-03 20:49 | 44.45121 | 21.05775 | 38178 ft | 431 kts | 327° |
| 2026-05-03 20:50 | 44.49961 | 21.00785 | 38182 ft | 431 kts | 327° |
| 2026-05-03 20:50 | 44.54796 | 20.95798 | 38183 ft | 431 kts | 327° |
| 2026-05-03 20:51 | 44.59620 | 20.90818 | 38181 ft | 431 kts | 327° |
| 2026-05-03 20:51 | 44.64410 | 20.85861 | 38182 ft | 431 kts | 327° |
| 2026-05-03 20:52 | 44.69230 | 20.80854 | 38178 ft | 430 kts | 327° |
| 2026-05-03 20:52 | 44.74048 | 20.75834 | 38182 ft | 430 kts | 327° |
| 2026-05-03 20:53 | 44.78838 | 20.70831 | 38184 ft | 430 kts | 327° |
| 2026-05-03 20:53 | 44.83644 | 20.65808 | 38190 ft | 430 kts | 327° |
| 2026-05-03 20:54 | 44.88447 | 20.60782 | 38193 ft | 430 kts | 327° |
| 2026-05-03 20:54 | 44.95644 | 20.53225 | 38201 ft | 429 kts | 327° |
| 2026-05-03 20:55 | 45.00353 | 20.48257 | 38203 ft | 429 kts | 327° |
| 2026-05-03 20:55 | 45.05134 | 20.43209 | 38204 ft | 428 kts | 327° |
| 2026-05-03 20:56 | 45.09882 | 20.38193 | 38208 ft | 428 kts | 327° |
| 2026-05-03 20:56 | 45.14669 | 20.33120 | 38207 ft | 427 kts | 327° |
| 2026-05-03 20:57 | 45.19429 | 20.28070 | 38203 ft | 427 kts | 327° |
| 2026-05-03 20:57 | 45.24175 | 20.23015 | 38201 ft | 426 kts | 327° |
| 2026-05-03 20:58 | 45.28882 | 20.17989 | 38193 ft | 426 kts | 327° |
| 2026-05-03 20:58 | 45.33620 | 20.12921 | 38200 ft | 426 kts | 327° |
| 2026-05-03 20:59 | 45.38349 | 20.07856 | 38206 ft | 425 kts | 327° |
| 2026-05-03 20:59 | 45.43077 | 20.02786 | 38198 ft | 425 kts | 327° |
| 2026-05-03 21:00 | 45.47005 | 19.98564 | 38192 ft | 425 kts | 327° |
| 2026-05-03 21:00 | 45.52521 | 19.92608 | 38194 ft | 425 kts | 327° |
| 2026-05-03 21:01 | 45.57245 | 19.87516 | 38188 ft | 425 kts | 326° |
| 2026-05-03 21:01 | 45.61932 | 19.82446 | 38181 ft | 425 kts | 326° |
| 2026-05-03 21:02 | 45.66639 | 19.77320 | 38183 ft | 425 kts | 326° |
| 2026-05-03 21:02 | 45.71353 | 19.72194 | 38182 ft | 425 kts | 326° |
| 2026-05-03 21:03 | 45.76068 | 19.67067 | 38177 ft | 425 kts | 326° |
| 2026-05-03 21:03 | 45.80764 | 19.61942 | 38178 ft | 425 kts | 326° |
| 2026-05-03 21:04 | 45.85451 | 19.56805 | 38186 ft | 425 kts | 326° |
| 2026-05-03 21:04 | 45.90146 | 19.51655 | 38182 ft | 425 kts | 326° |
| 2026-05-03 21:05 | 45.94842 | 19.46494 | 38182 ft | 425 kts | 326° |
| 2026-05-03 21:05 | 45.99477 | 19.41388 | 38179 ft | 425 kts | 326° |
| 2026-05-03 21:06 | 46.04164 | 19.36222 | 38178 ft | 425 kts | 326° |
| 2026-05-03 21:06 | 46.08831 | 19.30967 | 38175 ft | 425 kts | 325° |
| 2026-05-03 21:07 | 46.13417 | 19.25660 | 38176 ft | 425 kts | 324° |
| 2026-05-03 21:07 | 46.18037 | 19.20306 | 38172 ft | 425 kts | 324° |
| 2026-05-03 21:08 | 46.22659 | 19.14968 | 38172 ft | 425 kts | 324° |
| 2026-05-03 21:08 | 46.27191 | 19.09740 | 38170 ft | 425 kts | 324° |
| 2026-05-03 21:09 | 46.31784 | 19.04427 | 38169 ft | 425 kts | 324° |
| 2026-05-03 21:09 | 46.36407 | 18.99064 | 38165 ft | 425 kts | 324° |
| 2026-05-03 21:10 | 46.40987 | 18.93732 | 38158 ft | 425 kts | 324° |
| 2026-05-03 21:10 | 46.45504 | 18.88462 | 38161 ft | 425 kts | 324° |
| 2026-05-03 21:11 | 46.50079 | 18.83123 | 38159 ft | 425 kts | 324° |
| 2026-05-03 21:11 | 46.54614 | 18.77816 | 38157 ft | 425 kts | 324° |
| 2026-05-03 21:12 | 46.59156 | 18.72483 | 38154 ft | 425 kts | 324° |
| 2026-05-03 21:12 | 46.63732 | 18.67094 | 38156 ft | 425 kts | 324° |
| 2026-05-03 21:13 | 46.68305 | 18.61704 | 38151 ft | 425 kts | 324° |
| 2026-05-03 21:13 | 46.72896 | 18.56290 | 38149 ft | 425 kts | 323° |
| 2026-05-03 21:14 | 46.77481 | 18.50851 | 38151 ft | 425 kts | 323° |
| 2026-05-03 21:14 | 46.82061 | 18.45400 | 38151 ft | 425 kts | 323° |
| 2026-05-03 21:15 | 46.86645 | 18.39947 | 38147 ft | 425 kts | 323° |
| 2026-05-03 21:15 | 46.91226 | 18.34497 | 38149 ft | 425 kts | 323° |
| 2026-05-03 21:16 | 46.95810 | 18.29020 | 38145 ft | 425 kts | 323° |
| 2026-05-03 21:16 | 47.00366 | 18.23563 | 38140 ft | 425 kts | 323° |
| 2026-05-03 21:17 | 47.04166 | 18.19000 | 38136 ft | 425 kts | 322° |
| 2026-05-03 21:17 | 47.09537 | 18.12759 | 38131 ft | 425 kts | 325° |
| 2026-05-03 21:18 | 47.14300 | 18.07611 | 38133 ft | 425 kts | 326° |
| 2026-05-03 21:18 | 47.19057 | 18.02452 | 38138 ft | 425 kts | 325° |
| 2026-05-03 21:19 | 47.23786 | 17.97221 | 38129 ft | 425 kts | 324° |
| 2026-05-03 21:19 | 47.28481 | 17.91985 | 38129 ft | 426 kts | 324° |
| 2026-05-03 21:20 | 47.33213 | 17.86696 | 38125 ft | 426 kts | 324° |
| 2026-05-03 21:20 | 47.37933 | 17.81419 | 38117 ft | 426 kts | 324° |
| 2026-05-03 21:21 | 47.42658 | 17.76137 | 38118 ft | 426 kts | 324° |
| 2026-05-03 21:21 | 47.47356 | 17.70877 | 38137 ft | 426 kts | 324° |
| 2026-05-03 21:22 | 47.52064 | 17.65590 | 38135 ft | 427 kts | 324° |
| 2026-05-03 21:22 | 47.56646 | 17.60420 | 38140 ft | 427 kts | 323° |
| 2026-05-03 21:23 | 47.61373 | 17.55078 | 38129 ft | 427 kts | 323° |
| 2026-05-03 21:23 | 47.66104 | 17.49727 | 38123 ft | 427 kts | 323° |
| 2026-05-03 21:24 | 47.70831 | 17.44370 | 38125 ft | 428 kts | 323° |
| 2026-05-03 21:24 | 47.75559 | 17.38993 | 38114 ft | 428 kts | 323° |
| 2026-05-03 21:25 | 47.80261 | 17.33623 | 38107 ft | 428 kts | 323° |
| 2026-05-03 21:25 | 47.84884 | 17.28332 | 38104 ft | 429 kts | 323° |
| 2026-05-03 21:26 | 47.89625 | 17.22910 | 38093 ft | 429 kts | 323° |
| 2026-05-03 21:26 | 47.94361 | 17.17484 | 38091 ft | 430 kts | 323° |
| 2026-05-03 21:27 | 47.99072 | 17.12063 | 38084 ft | 430 kts | 323° |
| 2026-05-03 21:27 | 48.03795 | 17.06612 | 38088 ft | 430 kts | 322° |
| 2026-05-03 21:28 | 48.08485 | 17.01187 | 38089 ft | 431 kts | 322° |
| 2026-05-03 21:28 | 48.13233 | 16.95675 | 38086 ft | 431 kts | 322° |
| 2026-05-03 21:29 | 48.17976 | 16.90169 | 38088 ft | 431 kts | 322° |
| 2026-05-03 21:29 | 48.22725 | 16.84654 | 38081 ft | 432 kts | 322° |
| 2026-05-03 21:30 | 48.27464 | 16.79127 | 38078 ft | 432 kts | 322° |
| 2026-05-03 21:30 | 48.32210 | 16.73572 | 38076 ft | 432 kts | 322° |
| 2026-05-03 21:31 | 48.36927 | 16.68028 | 38084 ft | 432 kts | 322° |
| 2026-05-03 21:31 | 48.41668 | 16.62461 | 38078 ft | 432 kts | 322° |
| 2026-05-03 21:32 | 48.46373 | 16.56910 | 38080 ft | 432 kts | 322° |
| 2026-05-03 21:32 | 48.51103 | 16.51320 | 38072 ft | 432 kts | 321° |
| 2026-05-03 21:33 | 48.55830 | 16.45714 | 38072 ft | 432 kts | 321° |
| 2026-05-03 21:33 | 48.60557 | 16.40105 | 38074 ft | 432 kts | 321° |
| 2026-05-03 21:34 | 48.64483 | 16.35439 | 38070 ft | 432 kts | 321° |
| 2026-05-03 21:34 | 48.69974 | 16.28888 | 38059 ft | 432 kts | 321° |
| 2026-05-03 21:35 | 48.73926 | 16.24161 | 38054 ft | 432 kts | 321° |
| 2026-05-03 21:35 | 48.79001 | 16.19287 | 38049 ft | 433 kts | 336° |
| 2026-05-03 21:36 | 48.84555 | 16.15933 | 38049 ft | 434 kts | 337° |
| 2026-05-03 21:36 | 48.90181 | 16.12547 | 38054 ft | 435 kts | 338° |
| 2026-05-03 21:37 | 48.95814 | 16.09155 | 38051 ft | 436 kts | 337° |
| 2026-05-03 21:37 | 49.01452 | 16.05750 | 38052 ft | 436 kts | 337° |
| 2026-05-03 21:38 | 49.07100 | 16.02332 | 38058 ft | 436 kts | 337° |
| 2026-05-03 21:38 | 49.12637 | 15.98976 | 38067 ft | 436 kts | 337° |
| 2026-05-03 21:39 | 49.18208 | 15.95577 | 38061 ft | 436 kts | 337° |
| 2026-05-03 21:39 | 49.23847 | 15.92132 | 38065 ft | 436 kts | 337° |
| 2026-05-03 21:40 | 49.29449 | 15.88716 | 38066 ft | 436 kts | 337° |
| 2026-05-03 21:40 | 49.35090 | 15.85266 | 38069 ft | 436 kts | 337° |
| 2026-05-03 21:41 | 49.40731 | 15.81788 | 38061 ft | 436 kts | 336° |
| 2026-05-03 21:41 | 49.46353 | 15.78232 | 38058 ft | 436 kts | 332° |
| 2026-05-03 21:42 | 49.51626 | 15.73676 | 38051 ft | 435 kts | 329° |
| 2026-05-03 21:42 | 49.56801 | 15.69119 | 38051 ft | 435 kts | 329° |
| 2026-05-03 21:43 | 49.62054 | 15.64491 | 38048 ft | 435 kts | 329° |
| 2026-05-03 21:43 | 49.67304 | 15.59858 | 38050 ft | 434 kts | 328° |
| 2026-05-03 21:44 | 49.72429 | 15.55308 | 38034 ft | 434 kts | 328° |
| 2026-05-03 21:44 | 49.77668 | 15.50638 | 38027 ft | 434 kts | 328° |
| 2026-05-03 21:45 | 49.82899 | 15.45973 | 38026 ft | 434 kts | 328° |
| 2026-05-03 21:45 | 49.88100 | 15.41313 | 38015 ft | 434 kts | 328° |
| 2026-05-03 21:46 | 49.93342 | 15.36610 | 38005 ft | 435 kts | 328° |
| 2026-05-03 21:46 | 49.98589 | 15.31901 | 37999 ft | 436 kts | 328° |
| 2026-05-03 21:47 | 50.03847 | 15.27157 | 38000 ft | 437 kts | 328° |
| 2026-05-03 21:47 | 50.09114 | 15.22405 | 38002 ft | 438 kts | 328° |
| 2026-05-03 21:48 | 50.14385 | 15.17639 | 38005 ft | 438 kts | 328° |
| 2026-05-03 21:48 | 50.19656 | 15.12853 | 38008 ft | 439 kts | 328° |
| 2026-05-03 21:49 | 50.24934 | 15.08041 | 38004 ft | 439 kts | 328° |
| 2026-05-03 21:49 | 50.30188 | 15.03238 | 38011 ft | 440 kts | 328° |
| 2026-05-03 21:50 | 50.35391 | 14.98483 | 38011 ft | 440 kts | 328° |
| 2026-05-03 21:50 | 50.40687 | 14.93638 | 38011 ft | 441 kts | 328° |
| 2026-05-03 21:51 | 50.45977 | 14.88768 | 38018 ft | 441 kts | 328° |
| 2026-05-03 21:51 | 50.51173 | 14.83746 | 38018 ft | 440 kts | 324° |
| 2026-05-03 21:52 | 50.56168 | 14.78178 | 38020 ft | 439 kts | 322° |
| 2026-05-03 21:52 | 50.61066 | 14.72516 | 38019 ft | 440 kts | 322° |
| 2026-05-03 21:53 | 50.66033 | 14.66899 | 38017 ft | 440 kts | 323° |
| 2026-05-03 21:53 | 50.71042 | 14.61327 | 38012 ft | 440 kts | 323° |
| 2026-05-03 21:54 | 50.76047 | 14.55763 | 38005 ft | 440 kts | 322° |
| 2026-05-03 21:54 | 50.80945 | 14.50273 | 38004 ft | 440 kts | 322° |
| 2026-05-03 21:55 | 50.85907 | 14.44685 | 37998 ft | 440 kts | 322° |
| 2026-05-03 21:55 | 50.90871 | 14.39082 | 37995 ft | 441 kts | 322° |
| 2026-05-03 21:56 | 50.95644 | 14.33005 | 37984 ft | 439 kts | 317° |
| 2026-05-03 21:56 | 51.00265 | 14.26660 | 37979 ft | 440 kts | 317° |
| 2026-05-03 21:57 | 51.04902 | 14.20295 | 37972 ft | 440 kts | 317° |
| 2026-05-03 21:57 | 51.09499 | 14.13943 | 37967 ft | 440 kts | 316° |
| 2026-05-03 21:58 | 51.14122 | 14.07527 | 37963 ft | 441 kts | 316° |
| 2026-05-03 21:58 | 51.18724 | 14.01149 | 37957 ft | 441 kts | 316° |
| 2026-05-03 21:59 | 51.23357 | 13.94710 | 37960 ft | 441 kts | 316° |
| 2026-05-03 21:59 | 51.27975 | 13.88259 | 37958 ft | 441 kts | 316° |
| 2026-05-03 22:00 | 51.32567 | 13.81827 | 37959 ft | 441 kts | 316° |
| 2026-05-03 22:00 | 51.37141 | 13.75400 | 37958 ft | 442 kts | 316° |
| 2026-05-03 22:01 | 51.41474 | 13.69291 | 37955 ft | 442 kts | 316° |
| 2026-05-03 22:01 | 51.46067 | 13.62824 | 37954 ft | 442 kts | 315° |
| 2026-05-03 22:02 | 51.50687 | 13.56284 | 37950 ft | 442 kts | 315° |
| 2026-05-03 22:02 | 51.55297 | 13.49726 | 37940 ft | 442 kts | 315° |
| 2026-05-03 22:03 | 51.59906 | 13.43161 | 37821 ft | 443 kts | 316° |
| 2026-05-03 22:03 | 51.62161 | 13.39948 | 37929 ft | 442 kts | 315° |
| 2026-05-03 22:03 | 51.64426 | 13.36720 | 37928 ft | 443 kts | 315° |
| 2026-05-03 22:04 | 51.68915 | 13.30300 | 37926 ft | 443 kts | 315° |
| 2026-05-03 22:04 | 51.73525 | 13.23678 | 37920 ft | 443 kts | 315° |
| 2026-05-03 22:05 | 51.78133 | 13.17043 | 37918 ft | 443 kts | 315° |
| 2026-05-03 22:05 | 51.82731 | 13.10397 | 37921 ft | 443 kts | 315° |
| 2026-05-03 22:06 | 51.87333 | 13.03736 | 37926 ft | 443 kts | 315° |
| 2026-05-03 22:06 | 51.91930 | 12.97066 | 37929 ft | 444 kts | 314° |
| 2026-05-03 22:07 | 51.96526 | 12.90380 | 37938 ft | 444 kts | 314° |
| 2026-05-03 22:07 | 52.01071 | 12.83742 | 37936 ft | 444 kts | 314° |
| 2026-05-03 22:08 | 52.05664 | 12.77012 | 37934 ft | 444 kts | 314° |
| 2026-05-03 22:08 | 52.10242 | 12.70281 | 37935 ft | 444 kts | 314° |
| 2026-05-03 22:09 | 52.14824 | 12.63547 | 37938 ft | 444 kts | 314° |
| 2026-05-03 22:10 | 52.21661 | 12.53430 | 37935 ft | 444 kts | 314° |
| 2026-05-03 22:10 | 52.26219 | 12.46647 | 37937 ft | 444 kts | 314° |
| 2026-05-03 22:11 | 52.30791 | 12.39857 | 37937 ft | 444 kts | 314° |
| 2026-05-03 22:11 | 52.35364 | 12.33050 | 37940 ft | 444 kts | 314° |
| 2026-05-03 22:12 | 52.39927 | 12.26217 | 37940 ft | 444 kts | 314° |
| 2026-05-03 22:12 | 52.44486 | 12.19376 | 37943 ft | 444 kts | 314° |
| 2026-05-03 22:13 | 52.49011 | 12.12564 | 37945 ft | 444 kts | 314° |
| 2026-05-03 22:13 | 52.53560 | 12.05680 | 37938 ft | 444 kts | 313° |
| 2026-05-03 22:14 | 52.58104 | 11.98778 | 37948 ft | 444 kts | 313° |
| 2026-05-03 22:14 | 52.62635 | 11.91876 | 37949 ft | 444 kts | 313° |
| 2026-05-03 22:15 | 52.67523 | 11.85506 | 37947 ft | 447 kts | 319° |
| 2026-05-03 22:15 | 52.72456 | 11.79293 | 37463 ft | 444 kts | 318° |
| 2026-05-03 22:15 | 52.74816 | 11.76304 | 36998 ft | 440 kts | 318° |
| 2026-05-03 22:16 | 52.77094 | 11.73411 | 36558 ft | 436 kts | 318° |
| 2026-05-03 22:16 | 52.79487 | 11.70358 | 36083 ft | 433 kts | 318° |
| 2026-05-03 22:16 | 52.81876 | 11.67302 | 35449 ft | 434 kts | 317° |
| 2026-05-03 22:16 | 52.84269 | 11.64245 | 34746 ft | 435 kts | 317° |
| 2026-05-03 22:17 | 52.86678 | 11.61169 | 34041 ft | 438 kts | 317° |
| 2026-05-03 22:17 | 52.89102 | 11.58066 | 33264 ft | 441 kts | 317° |
| 2026-05-03 22:17 | 52.91538 | 11.54942 | 32476 ft | 444 kts | 317° |
| 2026-05-03 22:17 | 52.93996 | 11.51788 | 31720 ft | 450 kts | 317° |
| 2026-05-03 22:18 | 52.96454 | 11.48624 | 30999 ft | 457 kts | 318° |
| 2026-05-03 22:18 | 52.98979 | 11.45372 | 30283 ft | 460 kts | 318° |
| 2026-05-03 22:18 | 53.01509 | 11.42108 | 29496 ft | 462 kts | 318° |
| 2026-05-03 22:18 | 53.04054 | 11.38827 | 28677 ft | 459 kts | 318° |
| 2026-05-03 22:19 | 53.06573 | 11.35583 | 27892 ft | 455 kts | 318° |
| 2026-05-03 22:19 | 53.09060 | 11.32385 | 27118 ft | 449 kts | 318° |
| 2026-05-03 22:19 | 53.11519 | 11.29230 | 26384 ft | 444 kts | 318° |
| 2026-05-03 22:19 | 53.13992 | 11.26145 | 25649 ft | 440 kts | 320° |
| 2026-05-03 22:20 | 53.16415 | 11.23291 | 24972 ft | 437 kts | 321° |
| 2026-05-03 22:20 | 53.18917 | 11.20454 | 24275 ft | 433 kts | 322° |
| 2026-05-03 22:20 | 53.20567 | 11.18609 | 23837 ft | 430 kts | 322° |
| 2026-05-03 22:20 | 53.23852 | 11.14992 | 22850 ft | 425 kts | 322° |
| 2026-05-03 22:21 | 53.26326 | 11.12339 | 22071 ft | 420 kts | 323° |
| 2026-05-03 22:21 | 53.28787 | 11.09733 | 21311 ft | 415 kts | 323° |
| 2026-05-03 22:21 | 53.31191 | 11.07193 | 20563 ft | 402 kts | 323° |
| 2026-05-03 22:21 | 53.33502 | 11.04749 | 19839 ft | 384 kts | 323° |
| 2026-05-03 22:22 | 53.35717 | 11.02396 | 19140 ft | 371 kts | 322° |
| 2026-05-03 22:22 | 53.37144 | 11.00869 | 18681 ft | 365 kts | 322° |
| 2026-05-03 22:22 | 53.39270 | 10.98580 | 17962 ft | 360 kts | 322° |
| 2026-05-03 22:22 | 53.41362 | 10.96313 | 17200 ft | 356 kts | 322° |
| 2026-05-03 22:23 | 53.43438 | 10.94062 | 16487 ft | 353 kts | 322° |
| 2026-05-03 22:23 | 53.45489 | 10.91836 | 15814 ft | 351 kts | 322° |
| 2026-05-03 22:23 | 53.47529 | 10.89625 | 15136 ft | 348 kts | 322° |
| 2026-05-03 22:23 | 53.49551 | 10.87431 | 14484 ft | 345 kts | 321° |
| 2026-05-03 22:24 | 53.51559 | 10.85253 | 13837 ft | 342 kts | 321° |
| 2026-05-03 22:24 | 53.53551 | 10.83096 | 13125 ft | 337 kts | 322° |
| 2026-05-03 22:24 | 53.55465 | 10.81024 | 12435 ft | 326 kts | 321° |
| 2026-05-03 22:24 | 53.57350 | 10.78982 | 11741 ft | 317 kts | 321° |
| 2026-05-03 22:25 | 53.59177 | 10.76998 | 11073 ft | 309 kts | 321° |
| 2026-05-03 22:25 | 53.60907 | 10.75112 | 10427 ft | 302 kts | 321° |
| 2026-05-03 22:25 | 53.62650 | 10.73210 | 9777 ft | 295 kts | 321° |
| 2026-05-03 22:25 | 53.64356 | 10.71340 | 9065 ft | 290 kts | 321° |
| 2026-05-03 22:26 | 53.65782 | 10.69777 | 8475 ft | 285 kts | 321° |
| 2026-05-03 22:26 | 53.67368 | 10.68036 | 7815 ft | 280 kts | 321° |
| 2026-05-03 22:26 | 53.68993 | 10.66254 | 7142 ft | 276 kts | 321° |
| 2026-05-03 22:26 | 53.70561 | 10.64531 | 6494 ft | 272 kts | 321° |
| 2026-05-03 22:27 | 53.72138 | 10.62801 | 5816 ft | 268 kts | 321° |
| 2026-05-03 22:27 | 53.73701 | 10.61087 | 5199 ft | 271 kts | 321° |
| 2026-05-03 22:27 | 53.75273 | 10.59384 | 4998 ft | 263 kts | 324° |
| 2026-05-03 22:27 | 53.76930 | 10.58173 | 4976 ft | 256 kts | 333° |
| 2026-05-03 22:28 | 53.78364 | 10.56641 | 4818 ft | 235 kts | 304° |
| 2026-05-03 22:28 | 53.79157 | 10.54385 | 4588 ft | 217 kts | 284° |
| 2026-05-03 22:28 | 53.79524 | 10.51930 | 4176 ft | 215 kts | 279° |
| 2026-05-03 22:28 | 53.79884 | 10.49486 | 3970 ft | 214 kts | 279° |
| 2026-05-03 22:29 | 53.80252 | 10.47062 | 3977 ft | 216 kts | 280° |
| 2026-05-03 22:29 | 53.80629 | 10.44598 | 3984 ft | 216 kts | 281° |
| 2026-05-03 22:29 | 53.81009 | 10.42136 | 3970 ft | 217 kts | 280° |
| 2026-05-03 22:29 | 53.81390 | 10.39672 | 3985 ft | 216 kts | 280° |
| 2026-05-03 22:30 | 53.81469 | 10.37201 | 3979 ft | 211 kts | 255° |
| 2026-05-03 22:30 | 53.80833 | 10.35126 | 3987 ft | 210 kts | 231° |
| 2026-05-03 22:30 | 53.79895 | 10.33223 | 3985 ft | 211 kts | 231° |
| 2026-05-03 22:30 | 53.78974 | 10.31337 | 3985 ft | 211 kts | 231° |
| 2026-05-03 22:31 | 53.78278 | 10.29908 | 3994 ft | 211 kts | 231° |
| 2026-05-03 22:31 | 53.77337 | 10.27980 | 3974 ft | 202 kts | 231° |
| 2026-05-03 22:31 | 53.76480 | 10.26223 | 3875 ft | 193 kts | 231° |
| 2026-05-03 22:31 | 53.75633 | 10.24488 | 3679 ft | 189 kts | 231° |
| 2026-05-03 22:32 | 53.74821 | 10.22825 | 3447 ft | 178 kts | 232° |
| 2026-05-03 22:32 | 53.74058 | 10.21264 | 3235 ft | 165 kts | 232° |
| 2026-05-03 22:32 | 53.73333 | 10.19782 | 3002 ft | 161 kts | 232° |
| 2026-05-03 22:32 | 53.72619 | 10.18323 | 2776 ft | 160 kts | 232° |
| 2026-05-03 22:33 | 53.71915 | 10.16885 | 2567 ft | 160 kts | 232° |
| 2026-05-03 22:33 | 53.71206 | 10.15438 | 2356 ft | 160 kts | 232° |
| 2026-05-03 22:33 | 53.70495 | 10.13988 | 2141 ft | 159 kts | 232° |
| 2026-05-03 22:33 | 53.69795 | 10.12561 | 1931 ft | 156 kts | 232° |
| 2026-05-03 22:34 | 53.69128 | 10.11204 | 1726 ft | 148 kts | 232° |
| 2026-05-03 22:34 | 53.68483 | 10.09889 | 1505 ft | 144 kts | 232° |
| 2026-05-03 22:34 | 53.67839 | 10.08609 | 1282 ft | 142 kts | 231° |
| 2026-05-03 22:34 | 53.67213 | 10.07334 | 1066 ft | 140 kts | 233° |
| 2026-05-03 22:35 | 53.66613 | 10.06089 | 885 ft | 141 kts | 232° |
| 2026-05-03 22:35 | 53.65979 | 10.04819 | 705 ft | 142 kts | 230° |
| 2026-05-03 22:35 | 53.65345 | 10.03544 | 518 ft | 142 kts | 231° |
| 2026-05-03 22:35 | 53.64722 | 10.02263 | 367 ft | 141 kts | 230° |
| 2026-05-03 22:36 | 53.64097 | 10.00984 | 215 ft | 141 kts | 231° |
| 2026-05-03 22:36 | 53.63477 | 9.99720 | 54 ft | 139 kts | 230° |
| 2026-05-03 22:36 | 53.62986 | 9.98720 | 45 ft | 85 kts | 230° |
| 2026-05-03 22:36 | 53.62790 | 9.98322 | 43 ft | 32 kts | 230° |
| 2026-05-03 22:37 | 53.62648 | 9.98036 | 42 ft | 39 kts | 230° |
| 2026-05-03 22:37 | 53.62486 | 9.97787 | 41 ft | 20 kts | 179° |
| 2026-05-03 22:37 | 53.62430 | 9.97925 | 46 ft | 12 kts | 82° |
| 2026-05-03 22:37 | 53.62452 | 9.98051 | 46 ft | 13 kts | 66° |
| 2026-05-03 22:38 | 53.62533 | 9.98235 | 47 ft | 16 kts | 51° |
| 2026-05-03 22:38 | 53.62583 | 9.98335 | 47 ft | 13 kts | 50° |
| 2026-05-03 22:38 | 53.62660 | 9.98490 | 47 ft | 20 kts | 50° |
| 2026-05-03 22:38 | 53.62747 | 9.98668 | 47 ft | 19 kts | 51° |
| 2026-05-03 22:39 | 53.62830 | 9.98839 | 47 ft | 18 kts | 49° |
| 2026-05-03 22:39 | 53.62912 | 9.98997 | 47 ft | 17 kts | 49° |
| 2026-05-03 22:39 | 53.62987 | 9.99148 | 47 ft | 16 kts | 50° |
| 2026-05-03 22:39 | 53.63052 | 9.99287 | 45 ft | 15 kts | 54° |
| 2026-05-03 22:40 | 53.63117 | 9.99443 | 46 ft | 19 kts | 55° |
| 2026-05-03 22:40 | 53.63196 | 9.99616 | 47 ft | 18 kts | 51° |
| 2026-05-03 22:40 | 53.63217 | 9.99755 | 48 ft | 12 kts | 131° |
| 2026-05-03 22:40 | 53.63148 | 9.99829 | 48 ft | 11 kts | 149° |
| 2026-05-03 22:41 | 53.63128 | 9.99930 | 48 ft | 9 kts | 62° |
| 2026-05-03 22:41 | 53.63167 | 10.00006 | 48 ft | 8 kts | 49° |
| 2026-05-03 22:41 | 53.63202 | 10.00076 | 48 ft | 10 kts | 50° |
| 2026-05-03 22:41 | 53.63271 | 10.00214 | 48 ft | 13 kts | 49° |
| 2026-05-03 22:42 | 53.63290 | 10.00289 | 48 ft | 6 kts | 82° |
| 2026-05-03 22:42 | 53.63292 | 10.00347 | 48 ft | 1 kts | 87° |
| 2026-05-03 22:42 | 53.63292 | 10.00355 | 48 ft | 0 kts | 87° |